Pennsylvania — WAPZ — position and weather

sailwx.info

Track history (hours):
 
Tides and Currents Weather Stations Pressure Air Temp Water Temp Dewpoint Dewpoint Depression Visibility Wind Speed Wind Dir Waves Ship Positions

Pennsylvania

Owner: Crowley Petroleum Services, Jacksonville, FL. More information available from US FCC via Universal Licensing System and Coast Guard Vessel Documentation Center.

Last reported at 2017-Oct-18 17:58 UTC. Time now 2017-Oct-18 18:24 UTC.
Position N 27°55' W 082°27'.

Length 183 m; draft 11 m.

Type: Tanker. MMSI: 338617000.

Date/timePositionNaut miles runAvg speedWind from/ knotsBaromVisibWave heightAir tempDewpointWater temp
2017-Oct-18 17:58N 27°55' W 082°27'0 0.0
2017-Oct-18 17:28N 27°55' W 082°27'0 0.0
2017-Oct-18 16:58N 27°55' W 082°27'0 0.0
2017-Oct-18 16:28N 27°55' W 082°27'0 0.0
2017-Oct-18 15:58N 27°55' W 082°27'0 0.0
2017-Oct-18 15:28N 27°55' W 082°27'0 0.0
2017-Oct-18 14:58N 27°55' W 082°27'0 0.0
2017-Oct-18 13:58N 27°55' W 082°27'0 0.0
2017-Oct-18 13:28N 27°55' W 082°27'0 0.0
2017-Oct-18 13:00N 27°55' W 082°27'1 1.8
2017-Oct-18 12:30N 27°54' W 082°26'5 9.6
2017-Oct-18 12:00N 27°50' W 082°27'510.3
2017-Oct-18 11:30N 27°46' W 082°31'510.3
2017-Oct-18 10:59N 27°41' W 082°34'710.2
2017-Oct-18 10:20N 27°37' W 082°39'  
2017-Oct-14 11:11N 30°02' W 094°02'0 1.7
2017-Oct-14 10:59N 30°02' W 094°02'3 5.6
2017-Oct-14 10:30N 30°01' W 093°59'3 6.0
2017-Oct-14 09:59N 29°59' W 093°56'4 8.6
2017-Oct-14 09:30N 29°58' W 093°51'4 7.8
2017-Oct-14 09:00N 29°55' W 093°53'5 9.2
2017-Oct-14 08:30N 29°51' W 093°57'10 8.6
2017-Oct-14 07:24N 29°43' W 093°51'10 0.5
2017-Oct-13 08:21N 29°35' W 093°44'0 0.0
2017-Oct-13 08:00N 29°35' W 093°44'0 0.0
2017-Oct-13 07:09N 29°35' W 093°44'0 0.0
2017-Oct-13 06:57N 29°35' W 093°44'0 0.0
2017-Oct-13 06:30N 29°35' W 093°44'0 0.0
2017-Oct-13 05:36N 29°35' W 093°44'0 0.1
2017-Oct-13 05:24N 29°35' W 093°44'0 0.0
2017-Oct-12 13:48N 29°35' W 093°44'0 0.0
2017-Oct-12 13:30N 29°35' W 093°44'0 0.0
2017-Oct-12 10:09N 29°35' W 093°44'0 0.0
2017-Oct-12 09:54N 29°35' W 093°44'0 0.0
2017-Oct-12 09:24N 29°35' W 093°44'0 0.0
2017-Oct-12 08:57N 29°35' W 093°44'  
2017-Oct-09 00:56N 27°36' W 082°44'613.8
2017-Oct-09 00:30N 27°38' W 082°38'713.4
2017-Oct-09 00:00N 27°43' W 082°33'5 9.3
2017-Oct-08 23:30N 27°47' W 082°33'4 7.1
2017-Oct-08 23:00N 27°51' W 082°34'1 2.5
2017-Oct-08 22:30N 27°52' W 082°33'0 0.0
2017-Oct-08 22:00N 27°52' W 082°33'0 0.0
2017-Oct-08 21:30N 27°52' W 082°33'0 0.0
2017-Oct-08 21:00N 27°52' W 082°33'0 0.0
2017-Oct-08 20:30N 27°52' W 082°33'0 0.0
2017-Oct-08 20:00N 27°52' W 082°33'0 0.0
2017-Oct-08 19:30N 27°52' W 082°33'0 0.0
2017-Oct-08 19:00N 27°52' W 082°33'0 0.0
2017-Oct-08 18:30N 27°52' W 082°33'0 0.0
2017-Oct-08 18:00N 27°52' W 082°33'  
Track history (hours):
 
Tides and Currents Weather Stations Pressure Air Temp Water Temp Dewpoint Dewpoint Depression Visibility Wind Speed Wind Dir Waves Ship Positions

Pennsylvania

Owner: Crowley Petroleum Services, Jacksonville, FL. More information available from US FCC via Universal Licensing System and Coast Guard Vessel Documentation Center.

Last reported at 2017-Oct-18 17:58 UTC. Time now 2017-Oct-18 18:24 UTC.
Position N 27°55' W 082°27'.

Length 183 m; draft 11 m.

Type: Tanker. MMSI: 338617000.

Date/timePositionNaut miles runAvg speedWind from/ knotsBaromVisibWave heightAir tempDewpointWater temp
2017-Oct-18 17:58N 27°55' W 082°27'0 0.0
2017-Oct-18 17:28N 27°55' W 082°27'0 0.0
2017-Oct-18 16:58N 27°55' W 082°27'0 0.0
2017-Oct-18 16:28N 27°55' W 082°27'0 0.0
2017-Oct-18 15:58N 27°55' W 082°27'0 0.0
2017-Oct-18 15:28N 27°55' W 082°27'0 0.0
2017-Oct-18 14:58N 27°55' W 082°27'0 0.0
2017-Oct-18 13:58N 27°55' W 082°27'0 0.0
2017-Oct-18 13:28N 27°55' W 082°27'0 0.0
2017-Oct-18 13:00N 27°55' W 082°27'1 1.8
2017-Oct-18 12:30N 27°54' W 082°26'5 9.6
2017-Oct-18 12:00N 27°50' W 082°27'510.3
2017-Oct-18 11:30N 27°46' W 082°31'510.3
2017-Oct-18 10:59N 27°41' W 082°34'710.2
2017-Oct-18 10:20N 27°37' W 082°39'  
2017-Oct-14 11:11N 30°02' W 094°02'0 1.7
2017-Oct-14 10:59N 30°02' W 094°02'3 5.6
2017-Oct-14 10:30N 30°01' W 093°59'3 6.0
2017-Oct-14 09:59N 29°59' W 093°56'4 8.6
2017-Oct-14 09:30N 29°58' W 093°51'4 7.8
2017-Oct-14 09:00N 29°55' W 093°53'5 9.2
2017-Oct-14 08:30N 29°51' W 093°57'10 8.6
2017-Oct-14 07:24N 29°43' W 093°51'10 0.5
2017-Oct-13 08:21N 29°35' W 093°44'0 0.0
2017-Oct-13 08:00N 29°35' W 093°44'0 0.0
2017-Oct-13 07:09N 29°35' W 093°44'0 0.0
2017-Oct-13 06:57N 29°35' W 093°44'0 0.0
2017-Oct-13 06:30N 29°35' W 093°44'0 0.0
2017-Oct-13 05:36N 29°35' W 093°44'0 0.1
2017-Oct-13 05:24N 29°35' W 093°44'0 0.0
2017-Oct-12 13:48N 29°35' W 093°44'0 0.0
2017-Oct-12 13:30N 29°35' W 093°44'0 0.0
2017-Oct-12 10:09N 29°35' W 093°44'0 0.0
2017-Oct-12 09:54N 29°35' W 093°44'0 0.0
2017-Oct-12 09:24N 29°35' W 093°44'0 0.0
2017-Oct-12 08:57N 29°35' W 093°44'  
2017-Oct-09 00:56N 27°36' W 082°44'613.8
2017-Oct-09 00:30N 27°38' W 082°38'713.4
2017-Oct-09 00:00N 27°43' W 082°33'5 9.3
2017-Oct-08 23:30N 27°47' W 082°33'4 7.1
2017-Oct-08 23:00N 27°51' W 082°34'1 2.5
2017-Oct-08 22:30N 27°52' W 082°33'0 0.0
2017-Oct-08 22:00N 27°52' W 082°33'0 0.0
2017-Oct-08 21:30N 27°52' W 082°33'0 0.0
2017-Oct-08 21:00N 27°52' W 082°33'0 0.0
2017-Oct-08 20:30N 27°52' W 082°33'0 0.0
2017-Oct-08 20:00N 27°52' W 082°33'0 0.0
2017-Oct-08 19:30N 27°52' W 082°33'0 0.0
2017-Oct-08 19:00N 27°52' W 082°33'0 0.0
2017-Oct-08 18:30N 27°52' W 082°33'0 0.0
2017-Oct-08 18:00N 27°52' W 082°33'  

Dump ship's entire track history